ADDS TAF Board (Experimental) INFO Settings
IDs: Format: Expanded Condensed

KDCA - Washington/National, VA, US

Issued at 2201 UTC 28 May 2015
Updated at: 2203 UTC 28 May 2015
Time2159Z 28/23Z 29/00Z 29/01Z 29/02Z 29/03Z 29/04Z 29/05Z 29/06Z 29/07Z 29/08Z 29/09Z 29/10Z 29/11Z
Type OBS PRVL
  [TEMP]  
PRVL PRVL PRVL PRVL PRVL PRVL PRVL PRVL PRVL PRVL PRVL PRVL
VIS 10 >6
  [3]  
>6 >6 >6 >6 >6 >6 >6 >6 >6 >6 >6 >6
CIG 110 50
  [30]  
50 50 50 50 90 90 90 90 90 90 90 90
Cover OVC BKN
  [BKN]  
BKN BKN BKN BKN BKN BKN BKN BKN BKN BKN BKN BKN
FltCat VFR VFR
  [MVFR]  
VFR VFR VFR VFR VFR VFR VFR VFR VFR VFR VFR VFR
WX -TSRA VCTS
  [TSRA]  
VCTS -- -- -- -- -- -- -- -- -- -- --
WDir 230 140
[VRB]
140 160 160 160 VRB VRB VRB VRB VRB VRB VRB VRB
WSpd 14 6
  [15]  
6 4 4 4 0 0 0 0 0 0 0 0
WGst 20 --
  [25]  
-- -- -- -- -- -- -- -- -- -- -- --
R01/19
XWnd 11 -3 -3 -1 -1 -1 VRB VRB VRB VRB VRB VRB VRB VRB
XGst 16 0 -- -- -- -- -- -- -- -- -- -- -- --
HWnd -8 -5 -5 -4 -4 -4 VRB VRB VRB VRB VRB VRB VRB VRB
HGst -11 0 -- -- -- -- -- -- -- -- -- -- -- --
R04/22
XWnd 6 -5 -5 -3 -3 -3 VRB VRB VRB VRB VRB VRB VRB VRB
XGst 8 0 -- -- -- -- -- -- -- -- -- -- -- --
HWnd -13 -2 -2 -3 -3 -3 VRB VRB VRB VRB VRB VRB VRB VRB
HGst -18 0 -- -- -- -- -- -- -- -- -- -- -- --
R15/33
XWnd -14 0 0 -1 -1 -1 VRB VRB VRB VRB VRB VRB VRB VRB
XGst -20 0 -- -- -- -- -- -- -- -- -- -- -- --
HWnd 1 6 6 4 4 4 VRB VRB VRB VRB VRB VRB VRB VRB
HGst 1 0 -- -- -- -- -- -- -- -- -- -- -- --

NOTE: TEMPO conditions in [brackets]. Keep in mind TEMPO conditions might be better (lower impact) than prevailing conditions.

Raw TAF
KDCA 282201Z 2822/2918 14006KT P6SM VCTS BKN050CB
  TEMPO 2822/2824 VRB15G25KT 3SM TSRA BKN030CB
  FM290100 16004KT P6SM BKN050
  FM290400 00000KT P6SM BKN090
  FM291500 13006KT P6SM BKN250


Raw METAR
KDCA 282159Z 23014G20KT 10SM -TSRA SCT060CB BKN110 OVC250 29/18 A3014 RMK TSB58RAB59 OCNL LTGCG S-SW TS S-SW MOV E P0000
KDCA 282152Z 19007KT 10SM SCT055TCU BKN100 OVC250 29/20 A3014 RMK AO2 TCU SE VCSH S-SW AND E T02940200
KDCA 282115Z 17006KT 10SM SCT055 SCT100 OVC250 30/20 A3014 RMK AO2 CB DSNT W AND DSNT S MOV SE
KDCA 282052Z 18006KT 10SM SCT065TCU BKN250 31/19 A3014 RMK AO2 SLP207 TCU NE T03110189 56011
KDCA 281952Z 19004KT 10SM SCT065TCU SCT100 BKN250 31/19 A3015 RMK SLP210 TCU N T03110194

METAR Board
Radar Display
Forecast Discussion

TAF Board Legend

Potential Impact
Threat None Slight Moderate High
Visibility (sm) ≥5.1 5.1>X≥3 3>X≥1 <1
Ceiling (100 ft) ≥30.1 30.1>X≥10 10>X≥5 <5
Wind Speed (kt) <10 10≤X<20 20≤X<30 ≥30
Wind Gust (kt) <15 15≤X<25 25≤X<35 ≥35
Weather No Wx Reported VCTS,-TS,-FZRA,SN TS,FZRA +TS,+FZRA,+SN